sensor_id;sensor_type;location;lat;lon;timestamp;temperature;humidity
19007;DHT22;9636;47.382;8.480;2023-04-06T00:00:10;12.50;99.90
19007;DHT22;9636;47.382;8.480;2023-04-06T00:02:37;12.50;99.90
19007;DHT22;9636;47.382;8.480;2023-04-06T00:05:05;12.50;99.90
19007;DHT22;9636;47.382;8.480;2023-04-06T00:07:33;12.40;99.90
19007;DHT22;9636;47.382;8.480;2023-04-06T00:10:02;12.40;99.90
19007;DHT22;9636;47.382;8.480;2023-04-06T00:12:29;12.40;99.90
19007;DHT22;9636;47.382;8.480;2023-04-06T00:14:56;12.40;99.90
19007;DHT22;9636;47.382;8.480;2023-04-06T00:17:23;12.30;99.90
19007;DHT22;9636;47.382;8.480;2023-04-06T00:19:50;12.30;99.90
19007;DHT22;9636;47.382;8.480;2023-04-06T00:22:17;12.30;99.90
19007;DHT22;9636;47.382;8.480;2023-04-06T00:24:43;12.30;99.90
19007;DHT22;9636;47.382;8.480;2023-04-06T00:27:12;12.20;99.90
19007;DHT22;9636;47.382;8.480;2023-04-06T00:29:39;12.20;99.90
19007;DHT22;9636;47.382;8.480;2023-04-06T00:32:06;12.20;99.90
19007;DHT22;9636;47.382;8.480;2023-04-06T00:34:33;12.10;99.90
19007;DHT22;9636;47.382;8.480;2023-04-06T00:37:00;12.10;99.90
19007;DHT22;9636;47.382;8.480;2023-04-06T00:39:27;12.10;99.90
19007;DHT22;9636;47.382;8.480;2023-04-06T00:41:55;12.10;99.90
19007;DHT22;9636;47.382;8.480;2023-04-06T00:44:24;12.00;99.90
19007;DHT22;9636;47.382;8.480;2023-04-06T00:46:51;12.00;99.90
19007;DHT22;9636;47.382;8.480;2023-04-06T00:49:18;12.00;99.90
19007;DHT22;9636;47.382;8.480;2023-04-06T00:51:45;12.00;99.90
19007;DHT22;9636;47.382;8.480;2023-04-06T00:54:12;11.90;99.90
19007;DHT22;9636;47.382;8.480;2023-04-06T00:56:39;11.90;99.90
19007;DHT22;9636;47.382;8.480;2023-04-06T00:59:05;11.90;99.90
19007;DHT22;9636;47.382;8.480;2023-04-06T01:01:34;11.80;99.90
19007;DHT22;9636;47.382;8.480;2023-04-06T01:04:01;11.80;99.90
19007;DHT22;9636;47.382;8.480;2023-04-06T01:06:28;11.80;99.90
19007;DHT22;9636;47.382;8.480;2023-04-06T01:08:55;11.80;99.90
19007;DHT22;9636;47.382;8.480;2023-04-06T01:11:22;11.80;99.90
19007;DHT22;9636;47.382;8.480;2023-04-06T01:13:49;11.70;99.90
19007;DHT22;9636;47.382;8.480;2023-04-06T01:16:16;11.70;99.90
19007;DHT22;9636;47.382;8.480;2023-04-06T01:18:44;11.70;99.90
19007;DHT22;9636;47.382;8.480;2023-04-06T01:21:11;11.60;99.90
19007;DHT22;9636;47.382;8.480;2023-04-06T01:23:43;11.60;99.90
19007;DHT22;9636;47.382;8.480;2023-04-06T01:26:11;11.60;99.90
19007;DHT22;9636;47.382;8.480;2023-04-06T01:28:38;11.60;99.90
19007;DHT22;9636;47.382;8.480;2023-04-06T01:31:07;11.50;99.90
19007;DHT22;9636;47.382;8.480;2023-04-06T01:33:34;11.50;99.90
19007;DHT22;9636;47.382;8.480;2023-04-06T01:36:01;11.40;99.90
19007;DHT22;9636;47.382;8.480;2023-04-06T01:38:28;11.40;99.90
19007;DHT22;9636;47.382;8.480;2023-04-06T01:40:56;11.40;99.90
19007;DHT22;9636;47.382;8.480;2023-04-06T01:43:23;11.40;99.90
19007;DHT22;9636;47.382;8.480;2023-04-06T01:45:50;11.40;99.90
19007;DHT22;9636;47.382;8.480;2023-04-06T01:48:17;11.40;99.90
19007;DHT22;9636;47.382;8.480;2023-04-06T01:50:44;11.30;99.90
19007;DHT22;9636;47.382;8.480;2023-04-06T01:53:11;11.30;99.90
19007;DHT22;9636;47.382;8.480;2023-04-06T01:55:38;11.30;99.90
19007;DHT22;9636;47.382;8.480;2023-04-06T01:58:06;11.20;99.90
19007;DHT22;9636;47.382;8.480;2023-04-06T02:00:33;11.20;99.90
19007;DHT22;9636;47.382;8.480;2023-04-06T02:03:00;11.20;99.90
19007;DHT22;9636;47.382;8.480;2023-04-06T02:05:29;11.20;99.90
19007;DHT22;9636;47.382;8.480;2023-04-06T02:07:56;11.10;99.90
19007;DHT22;9636;47.382;8.480;2023-04-06T02:10:23;11.10;99.90
19007;DHT22;9636;47.382;8.480;2023-04-06T02:12:50;11.10;99.90
19007;DHT22;9636;47.382;8.480;2023-04-06T02:15:19;11.00;99.90
19007;DHT22;9636;47.382;8.480;2023-04-06T02:17:45;11.00;99.90
19007;DHT22;9636;47.382;8.480;2023-04-06T02:20:12;11.00;99.90
19007;DHT22;9636;47.382;8.480;2023-04-06T02:22:39;11.00;99.90
19007;DHT22;9636;47.382;8.480;2023-04-06T02:25:07;11.00;99.90
19007;DHT22;9636;47.382;8.480;2023-04-06T02:27:34;10.90;99.90
19007;DHT22;9636;47.382;8.480;2023-04-06T02:30:01;10.90;99.90
19007;DHT22;9636;47.382;8.480;2023-04-06T02:32:29;10.90;99.90
19007;DHT22;9636;47.382;8.480;2023-04-06T02:34:56;10.90;99.90
19007;DHT22;9636;47.382;8.480;2023-04-06T02:37:23;10.80;99.90
19007;DHT22;9636;47.382;8.480;2023-04-06T02:39:50;10.80;99.90
19007;DHT22;9636;47.382;8.480;2023-04-06T02:42:17;10.80;99.90
19007;DHT22;9636;47.382;8.480;2023-04-06T02:44:44;10.80;99.90
19007;DHT22;9636;47.382;8.480;2023-04-06T02:47:11;10.80;99.90
19007;DHT22;9636;47.382;8.480;2023-04-06T02:49:39;10.70;99.90
19007;DHT22;9636;47.382;8.480;2023-04-06T02:52:06;10.70;99.90
19007;DHT22;9636;47.382;8.480;2023-04-06T02:54:33;10.70;99.90
19007;DHT22;9636;47.382;8.480;2023-04-06T02:57:00;10.60;99.90
19007;DHT22;9636;47.382;8.480;2023-04-06T02:59:26;10.70;99.90
19007;DHT22;9636;47.382;8.480;2023-04-06T03:01:53;10.60;99.90
19007;DHT22;9636;47.382;8.480;2023-04-06T03:04:20;10.60;99.90
19007;DHT22;9636;47.382;8.480;2023-04-06T03:06:53;10.60;99.90
19007;DHT22;9636;47.382;8.480;2023-04-06T03:09:20;10.50;99.90
19007;DHT22;9636;47.382;8.480;2023-04-06T03:11:47;10.50;99.90
19007;DHT22;9636;47.382;8.480;2023-04-06T03:14:14;10.50;99.90
19007;DHT22;9636;47.382;8.480;2023-04-06T03:16:42;10.50;99.90
19007;DHT22;9636;47.382;8.480;2023-04-06T03:19:10;10.50;99.90
19007;DHT22;9636;47.382;8.480;2023-04-06T03:21:36;10.40;99.90
19007;DHT22;9636;47.382;8.480;2023-04-06T03:24:05;10.40;99.90
19007;DHT22;9636;47.382;8.480;2023-04-06T03:26:33;10.40;99.90
19007;DHT22;9636;47.382;8.480;2023-04-06T03:29:00;10.40;99.90
19007;DHT22;9636;47.382;8.480;2023-04-06T03:31:27;10.30;99.90
19007;DHT22;9636;47.382;8.480;2023-04-06T03:33:54;10.40;99.90
19007;DHT22;9636;47.382;8.480;2023-04-06T03:36:21;10.30;99.90
19007;DHT22;9636;47.382;8.480;2023-04-06T03:38:47;10.30;99.90
19007;DHT22;9636;47.382;8.480;2023-04-06T03:41:16;10.30;99.90
19007;DHT22;9636;47.382;8.480;2023-04-06T03:43:43;10.20;99.90
19007;DHT22;9636;47.382;8.480;2023-04-06T03:46:10;10.20;99.90
19007;DHT22;9636;47.382;8.480;2023-04-06T03:48:37;10.20;99.90
19007;DHT22;9636;47.382;8.480;2023-04-06T03:51:04;10.10;99.90
19007;DHT22;9636;47.382;8.480;2023-04-06T03:53:31;10.20;99.90
19007;DHT22;9636;47.382;8.480;2023-04-06T03:55:58;10.10;99.90
19007;DHT22;9636;47.382;8.480;2023-04-06T03:58:26;10.10;99.90
19007;DHT22;9636;47.382;8.480;2023-04-06T04:00:53;10.10;99.90
19007;DHT22;9636;47.382;8.480;2023-04-06T04:03:20;10.10;99.90
19007;DHT22;9636;47.382;8.480;2023-04-06T04:05:49;10.00;99.90
19007;DHT22;9636;47.382;8.480;2023-04-06T04:08:16;10.00;99.90
19007;DHT22;9636;47.382;8.480;2023-04-06T04:10:43;10.00;99.90
19007;DHT22;9636;47.382;8.480;2023-04-06T04:13:10;10.00;99.90
19007;DHT22;9636;47.382;8.480;2023-04-06T04:15:38;9.90;99.90
19007;DHT22;9636;47.382;8.480;2023-04-06T04:18:06;9.90;99.90
19007;DHT22;9636;47.382;8.480;2023-04-06T04:20:33;9.90;99.90
19007;DHT22;9636;47.382;8.480;2023-04-06T04:23:00;9.90;99.90
19007;DHT22;9636;47.382;8.480;2023-04-06T04:25:27;9.90;99.90
19007;DHT22;9636;47.382;8.480;2023-04-06T04:27:53;9.80;99.90
19007;DHT22;9636;47.382;8.480;2023-04-06T04:30:21;9.80;99.90
19007;DHT22;9636;47.382;8.480;2023-04-06T04:32:49;9.80;99.90
19007;DHT22;9636;47.382;8.480;2023-04-06T04:35:16;9.80;99.90
19007;DHT22;9636;47.382;8.480;2023-04-06T04:37:43;9.80;99.90
19007;DHT22;9636;47.382;8.480;2023-04-06T04:40:11;9.80;99.90
19007;DHT22;9636;47.382;8.480;2023-04-06T04:42:38;9.70;99.90
19007;DHT22;9636;47.382;8.480;2023-04-06T04:45:05;9.70;99.90
19007;DHT22;9636;47.382;8.480;2023-04-06T04:47:32;9.70;99.90
19007;DHT22;9636;47.382;8.480;2023-04-06T04:50:00;9.70;99.90
19007;DHT22;9636;47.382;8.480;2023-04-06T04:52:27;9.70;99.90
19007;DHT22;9636;47.382;8.480;2023-04-06T04:54:54;9.70;99.90
19007;DHT22;9636;47.382;8.480;2023-04-06T04:57:21;9.60;99.90
19007;DHT22;9636;47.382;8.480;2023-04-06T04:59:48;9.60;99.90
19007;DHT22;9636;47.382;8.480;2023-04-06T05:02:16;9.60;99.90
19007;DHT22;9636;47.382;8.480;2023-04-06T05:04:43;9.60;99.90
19007;DHT22;9636;47.382;8.480;2023-04-06T05:07:11;9.60;99.90
19007;DHT22;9636;47.382;8.480;2023-04-06T05:09:38;9.60;99.90
19007;DHT22;9636;47.382;8.480;2023-04-06T05:12:05;9.60;99.90
19007;DHT22;9636;47.382;8.480;2023-04-06T05:14:32;9.60;99.90
19007;DHT22;9636;47.382;8.480;2023-04-06T05:16:59;9.60;99.90
19007;DHT22;9636;47.382;8.480;2023-04-06T05:19:26;9.60;99.90
19007;DHT22;9636;47.382;8.480;2023-04-06T05:21:53;9.60;99.90
19007;DHT22;9636;47.382;8.480;2023-04-06T05:24:22;9.60;99.90
19007;DHT22;9636;47.382;8.480;2023-04-06T05:29:16;9.70;99.90
19007;DHT22;9636;47.382;8.480;2023-04-06T05:31:43;9.70;99.90
19007;DHT22;9636;47.382;8.480;2023-04-06T05:34:10;9.70;99.90
19007;DHT22;9636;47.382;8.480;2023-04-06T05:36:38;9.80;99.90
19007;DHT22;9636;47.382;8.480;2023-04-06T05:39:05;9.80;99.90
19007;DHT22;9636;47.382;8.480;2023-04-06T05:41:34;9.90;99.90
19007;DHT22;9636;47.382;8.480;2023-04-06T05:44:01;10.00;99.90
19007;DHT22;9636;47.382;8.480;2023-04-06T05:46:27;10.10;99.90
19007;DHT22;9636;47.382;8.480;2023-04-06T05:48:54;10.10;99.90
19007;DHT22;9636;47.382;8.480;2023-04-06T05:51:21;10.30;99.90
19007;DHT22;9636;47.382;8.480;2023-04-06T05:53:48;10.40;99.90
19007;DHT22;9636;47.382;8.480;2023-04-06T05:56:15;10.50;99.90
19007;DHT22;9636;47.382;8.480;2023-04-06T05:58:43;10.60;99.90
19007;DHT22;9636;47.382;8.480;2023-04-06T06:01:10;10.70;99.90
19007;DHT22;9636;47.382;8.480;2023-04-06T06:03:37;10.80;99.90
19007;DHT22;9636;47.382;8.480;2023-04-06T06:06:04;11.00;99.90
19007;DHT22;9636;47.382;8.480;2023-04-06T06:08:31;11.10;99.90
19007;DHT22;9636;47.382;8.480;2023-04-06T06:10:58;11.20;99.90
19007;DHT22;9636;47.382;8.480;2023-04-06T06:13:25;11.40;99.90
19007;DHT22;9636;47.382;8.480;2023-04-06T06:15:54;11.50;99.90
19007;DHT22;9636;47.382;8.480;2023-04-06T06:18:21;11.70;99.90
19007;DHT22;9636;47.382;8.480;2023-04-06T06:20:47;11.90;99.90
19007;DHT22;9636;47.382;8.480;2023-04-06T06:23:14;12.00;99.90
19007;DHT22;9636;47.382;8.480;2023-04-06T06:25:41;12.20;99.90
19007;DHT22;9636;47.382;8.480;2023-04-06T06:28:08;12.40;99.90
19007;DHT22;9636;47.382;8.480;2023-04-06T06:30:35;12.60;99.90
19007;DHT22;9636;47.382;8.480;2023-04-06T06:33:03;12.70;99.90
19007;DHT22;9636;47.382;8.480;2023-04-06T06:35:30;12.90;99.90
19007;DHT22;9636;47.382;8.480;2023-04-06T06:37:57;13.10;99.90
19007;DHT22;9636;47.382;8.480;2023-04-06T06:40:24;13.30;99.90
19007;DHT22;9636;47.382;8.480;2023-04-06T06:42:52;13.40;99.90
19007;DHT22;9636;47.382;8.480;2023-04-06T06:45:19;13.40;99.90
19007;DHT22;9636;47.382;8.480;2023-04-06T06:47:46;13.50;99.90
19007;DHT22;9636;47.382;8.480;2023-04-06T06:50:14;13.60;99.90
19007;DHT22;9636;47.382;8.480;2023-04-06T06:52:41;13.70;99.90
19007;DHT22;9636;47.382;8.480;2023-04-06T06:55:09;13.80;99.90
19007;DHT22;9636;47.382;8.480;2023-04-06T06:57:37;13.90;99.90
19007;DHT22;9636;47.382;8.480;2023-04-06T07:00:05;13.90;99.90
19007;DHT22;9636;47.382;8.480;2023-04-06T07:02:34;14.00;99.90
19007;DHT22;9636;47.382;8.480;2023-04-06T07:05:01;14.20;99.90
19007;DHT22;9636;47.382;8.480;2023-04-06T07:07:29;14.30;99.90
19007;DHT22;9636;47.382;8.480;2023-04-06T07:09:56;14.40;99.90
19007;DHT22;9636;47.382;8.480;2023-04-06T07:12:23;14.50;99.90
19007;DHT22;9636;47.382;8.480;2023-04-06T07:14:50;14.70;99.90
19007;DHT22;9636;47.382;8.480;2023-04-06T07:17:17;14.70;99.90
19007;DHT22;9636;47.382;8.480;2023-04-06T07:19:44;14.90;99.90
19007;DHT22;9636;47.382;8.480;2023-04-06T07:22:11;14.90;99.90
19007;DHT22;9636;47.382;8.480;2023-04-06T07:24:39;15.00;99.90
19007;DHT22;9636;47.382;8.480;2023-04-06T07:27:06;15.10;99.90
19007;DHT22;9636;47.382;8.480;2023-04-06T07:29:33;15.30;99.90
19007;DHT22;9636;47.382;8.480;2023-04-06T07:32:00;15.40;99.90
19007;DHT22;9636;47.382;8.480;2023-04-06T07:34:27;15.60;99.90
19007;DHT22;9636;47.382;8.480;2023-04-06T07:36:54;15.80;99.90
19007;DHT22;9636;47.382;8.480;2023-04-06T07:39:22;16.00;99.90
19007;DHT22;9636;47.382;8.480;2023-04-06T07:41:50;16.10;99.90
19007;DHT22;9636;47.382;8.480;2023-04-06T07:44:17;16.30;99.90
19007;DHT22;9636;47.382;8.480;2023-04-06T07:46:44;16.40;99.90
19007;DHT22;9636;47.382;8.480;2023-04-06T07:49:11;16.50;99.90
19007;DHT22;9636;47.382;8.480;2023-04-06T07:51:38;16.60;99.90
19007;DHT22;9636;47.382;8.480;2023-04-06T07:54:05;16.70;99.90
19007;DHT22;9636;47.382;8.480;2023-04-06T07:56:32;16.80;99.90
19007;DHT22;9636;47.382;8.480;2023-04-06T07:59:01;17.00;99.90
19007;DHT22;9636;47.382;8.480;2023-04-06T08:01:28;17.10;99.90
19007;DHT22;9636;47.382;8.480;2023-04-06T08:03:55;17.20;99.90
19007;DHT22;9636;47.382;8.480;2023-04-06T08:06:23;17.30;99.90
19007;DHT22;9636;47.382;8.480;2023-04-06T08:08:50;17.40;99.90
19007;DHT22;9636;47.382;8.480;2023-04-06T08:11:17;17.50;99.90
19007;DHT22;9636;47.382;8.480;2023-04-06T08:13:43;17.60;99.90
19007;DHT22;9636;47.382;8.480;2023-04-06T08:16:12;17.70;99.90
19007;DHT22;9636;47.382;8.480;2023-04-06T08:18:39;17.70;99.90
19007;DHT22;9636;47.382;8.480;2023-04-06T08:21:05;17.80;99.90
19007;DHT22;9636;47.382;8.480;2023-04-06T08:23:32;17.90;99.90
19007;DHT22;9636;47.382;8.480;2023-04-06T08:25:59;18.00;99.90
19007;DHT22;9636;47.382;8.480;2023-04-06T08:28:26;18.10;99.90
19007;DHT22;9636;47.382;8.480;2023-04-06T08:30:53;18.20;99.90
19007;DHT22;9636;47.382;8.480;2023-04-06T08:33:21;18.20;99.90
19007;DHT22;9636;47.382;8.480;2023-04-06T08:35:48;18.30;99.90
19007;DHT22;9636;47.382;8.480;2023-04-06T08:38:15;18.40;99.90
19007;DHT22;9636;47.382;8.480;2023-04-06T08:40:42;18.40;99.90
19007;DHT22;9636;47.382;8.480;2023-04-06T08:43:13;18.50;99.90
19007;DHT22;9636;47.382;8.480;2023-04-06T08:45:41;18.60;99.90
19007;DHT22;9636;47.382;8.480;2023-04-06T08:48:08;18.60;99.90
19007;DHT22;9636;47.382;8.480;2023-04-06T08:50:38;18.70;99.90
19007;DHT22;9636;47.382;8.480;2023-04-06T08:53:06;18.80;99.90
19007;DHT22;9636;47.382;8.480;2023-04-06T08:55:34;18.80;99.90
19007;DHT22;9636;47.382;8.480;2023-04-06T08:58:02;18.90;99.90
19007;DHT22;9636;47.382;8.480;2023-04-06T09:00:29;19.00;99.90
19007;DHT22;9636;47.382;8.480;2023-04-06T09:02:57;19.00;99.90
19007;DHT22;9636;47.382;8.480;2023-04-06T09:05:25;19.10;99.90
19007;DHT22;9636;47.382;8.480;2023-04-06T09:07:53;19.20;99.90
19007;DHT22;9636;47.382;8.480;2023-04-06T09:10:21;19.20;99.90
19007;DHT22;9636;47.382;8.480;2023-04-06T09:12:49;19.30;99.90
19007;DHT22;9636;47.382;8.480;2023-04-06T09:15:20;19.30;99.90
19007;DHT22;9636;47.382;8.480;2023-04-06T09:17:47;19.40;99.90
19007;DHT22;9636;47.382;8.480;2023-04-06T09:20:14;19.50;99.90
19007;DHT22;9636;47.382;8.480;2023-04-06T09:22:48;19.50;99.90
19007;DHT22;9636;47.382;8.480;2023-04-06T09:25:20;19.60;99.90
19007;DHT22;9636;47.382;8.480;2023-04-06T09:27:48;19.60;99.90
19007;DHT22;9636;47.382;8.480;2023-04-06T09:30:16;19.70;99.90
19007;DHT22;9636;47.382;8.480;2023-04-06T09:32:48;19.70;99.90
19007;DHT22;9636;47.382;8.480;2023-04-06T09:35:16;19.80;99.90
19007;DHT22;9636;47.382;8.480;2023-04-06T09:37:43;19.80;99.90
19007;DHT22;9636;47.382;8.480;2023-04-06T09:40:12;19.90;99.90
19007;DHT22;9636;47.382;8.480;2023-04-06T09:42:42;19.90;99.90
19007;DHT22;9636;47.382;8.480;2023-04-06T09:45:09;20.00;99.90
19007;DHT22;9636;47.382;8.480;2023-04-06T09:47:37;20.00;99.90
19007;DHT22;9636;47.382;8.480;2023-04-06T09:50:07;20.10;99.90
19007;DHT22;9636;47.382;8.480;2023-04-06T09:52:39;20.20;99.90
19007;DHT22;9636;47.382;8.480;2023-04-06T09:55:08;20.20;99.90
19007;DHT22;9636;47.382;8.480;2023-04-06T09:57:48;20.30;99.90
19007;DHT22;9636;47.382;8.480;2023-04-06T10:00:22;20.30;99.90
19007;DHT22;9636;47.382;8.480;2023-04-06T10:02:52;20.30;99.90
19007;DHT22;9636;47.382;8.480;2023-04-06T10:05:27;20.40;99.90
19007;DHT22;9636;47.382;8.480;2023-04-06T10:07:57;20.40;99.90
19007;DHT22;9636;47.382;8.480;2023-04-06T10:10:26;20.40;99.90
19007;DHT22;9636;47.382;8.480;2023-04-06T10:12:54;20.50;99.90
19007;DHT22;9636;47.382;8.480;2023-04-06T10:15:22;20.50;99.90
19007;DHT22;9636;47.382;8.480;2023-04-06T10:17:50;20.50;99.90
19007;DHT22;9636;47.382;8.480;2023-04-06T10:20:22;20.60;99.90
19007;DHT22;9636;47.382;8.480;2023-04-06T10:22:55;20.60;99.90
19007;DHT22;9636;47.382;8.480;2023-04-06T10:25:29;20.70;99.90
19007;DHT22;9636;47.382;8.480;2023-04-06T10:28:00;20.80;99.90
19007;DHT22;9636;47.382;8.480;2023-04-06T10:30:28;20.80;99.90
19007;DHT22;9636;47.382;8.480;2023-04-06T10:32:56;20.80;99.90
19007;DHT22;9636;47.382;8.480;2023-04-06T10:35:23;20.80;99.90
19007;DHT22;9636;47.382;8.480;2023-04-06T10:37:52;20.90;99.90
19007;DHT22;9636;47.382;8.480;2023-04-06T10:40:24;20.90;99.90
19007;DHT22;9636;47.382;8.480;2023-04-06T10:42:52;20.90;99.90
19007;DHT22;9636;47.382;8.480;2023-04-06T10:45:20;21.00;99.90
19007;DHT22;9636;47.382;8.480;2023-04-06T10:47:52;21.00;99.90
19007;DHT22;9636;47.382;8.480;2023-04-06T10:50:20;21.10;99.90
19007;DHT22;9636;47.382;8.480;2023-04-06T10:52:58;21.10;99.90
19007;DHT22;9636;47.382;8.480;2023-04-06T10:55:26;21.20;99.90
19007;DHT22;9636;47.382;8.480;2023-04-06T10:57:53;21.20;99.90
19007;DHT22;9636;47.382;8.480;2023-04-06T11:00:20;21.20;99.90
19007;DHT22;9636;47.382;8.480;2023-04-06T11:02:49;21.20;99.90
19007;DHT22;9636;47.382;8.480;2023-04-06T11:05:15;21.20;99.90
19007;DHT22;9636;47.382;8.480;2023-04-06T11:07:44;21.30;99.90
19007;DHT22;9636;47.382;8.480;2023-04-06T11:10:11;21.30;99.90
19007;DHT22;9636;47.382;8.480;2023-04-06T11:12:38;21.30;99.90
19007;DHT22;9636;47.382;8.480;2023-04-06T11:15:06;21.30;99.90
19007;DHT22;9636;47.382;8.480;2023-04-06T11:17:36;21.30;99.90
19007;DHT22;9636;47.382;8.480;2023-04-06T11:20:10;21.30;99.90
19007;DHT22;9636;47.382;8.480;2023-04-06T11:22:48;21.40;99.90
19007;DHT22;9636;47.382;8.480;2023-04-06T11:25:15;21.40;99.90
19007;DHT22;9636;47.382;8.480;2023-04-06T11:27:43;21.40;99.90
19007;DHT22;9636;47.382;8.480;2023-04-06T11:30:11;21.40;99.90
19007;DHT22;9636;47.382;8.480;2023-04-06T11:32:39;21.50;99.90
19007;DHT22;9636;47.382;8.480;2023-04-06T11:35:11;21.50;99.90
19007;DHT22;9636;47.382;8.480;2023-04-06T11:37:38;21.50;99.90
19007;DHT22;9636;47.382;8.480;2023-04-06T11:40:08;21.50;99.90
19007;DHT22;9636;47.382;8.480;2023-04-06T11:42:35;21.60;99.90
19007;DHT22;9636;47.382;8.480;2023-04-06T11:45:03;21.60;99.90
19007;DHT22;9636;47.382;8.480;2023-04-06T11:47:31;21.60;99.90
19007;DHT22;9636;47.382;8.480;2023-04-06T11:50:06;21.60;99.90
19007;DHT22;9636;47.382;8.480;2023-04-06T11:52:34;21.60;99.90
19007;DHT22;9636;47.382;8.480;2023-04-06T11:55:11;21.60;99.90
19007;DHT22;9636;47.382;8.480;2023-04-06T11:57:38;21.70;99.90
19007;DHT22;9636;47.382;8.480;2023-04-06T12:00:06;21.70;99.90
19007;DHT22;9636;47.382;8.480;2023-04-06T12:02:34;21.70;99.90
19007;DHT22;9636;47.382;8.480;2023-04-06T12:05:01;21.70;99.90
19007;DHT22;9636;47.382;8.480;2023-04-06T12:07:28;21.80;99.90
19007;DHT22;9636;47.382;8.480;2023-04-06T12:09:56;21.80;99.90
19007;DHT22;9636;47.382;8.480;2023-04-06T12:12:23;21.80;99.90
19007;DHT22;9636;47.382;8.480;2023-04-06T12:14:51;21.80;99.90
19007;DHT22;9636;47.382;8.480;2023-04-06T12:17:18;21.90;99.90
19007;DHT22;9636;47.382;8.480;2023-04-06T12:19:45;21.90;99.90
19007;DHT22;9636;47.382;8.480;2023-04-06T12:22:12;21.90;99.90
19007;DHT22;9636;47.382;8.480;2023-04-06T12:24:39;21.90;99.90
19007;DHT22;9636;47.382;8.480;2023-04-06T12:27:08;21.90;99.90
19007;DHT22;9636;47.382;8.480;2023-04-06T12:29:37;22.00;99.90
19007;DHT22;9636;47.382;8.480;2023-04-06T12:32:04;22.00;99.90
19007;DHT22;9636;47.382;8.480;2023-04-06T12:34:31;22.00;99.90
19007;DHT22;9636;47.382;8.480;2023-04-06T12:36:58;22.00;99.90
19007;DHT22;9636;47.382;8.480;2023-04-06T12:39:26;22.10;99.90
19007;DHT22;9636;47.382;8.480;2023-04-06T12:41:53;22.10;99.90
19007;DHT22;9636;47.382;8.480;2023-04-06T12:44:22;22.10;99.90
19007;DHT22;9636;47.382;8.480;2023-04-06T12:46:49;22.20;99.90
19007;DHT22;9636;47.382;8.480;2023-04-06T12:49:16;22.20;99.90
19007;DHT22;9636;47.382;8.480;2023-04-06T12:51:44;22.20;99.90
19007;DHT22;9636;47.382;8.480;2023-04-06T12:54:11;22.20;99.90
19007;DHT22;9636;47.382;8.480;2023-04-06T12:56:38;22.20;99.90
19007;DHT22;9636;47.382;8.480;2023-04-06T12:59:05;22.20;99.90
19007;DHT22;9636;47.382;8.480;2023-04-06T13:01:34;22.20;99.90
19007;DHT22;9636;47.382;8.480;2023-04-06T13:04:01;22.20;99.90
19007;DHT22;9636;47.382;8.480;2023-04-06T13:06:27;22.20;99.90
19007;DHT22;9636;47.382;8.480;2023-04-06T13:08:56;22.20;99.90
19007;DHT22;9636;47.382;8.480;2023-04-06T13:11:22;22.20;99.90
19007;DHT22;9636;47.382;8.480;2023-04-06T13:13:50;22.30;99.90
19007;DHT22;9636;47.382;8.480;2023-04-06T13:16:17;22.20;99.90
19007;DHT22;9636;47.382;8.480;2023-04-06T13:18:45;22.20;99.90
19007;DHT22;9636;47.382;8.480;2023-04-06T13:21:14;22.20;99.90
19007;DHT22;9636;47.382;8.480;2023-04-06T13:23:42;22.20;99.90
19007;DHT22;9636;47.382;8.480;2023-04-06T13:26:09;22.20;99.90
19007;DHT22;9636;47.382;8.480;2023-04-06T13:28:36;22.20;99.90
19007;DHT22;9636;47.382;8.480;2023-04-06T13:31:04;22.20;99.90
19007;DHT22;9636;47.382;8.480;2023-04-06T13:33:31;22.30;99.90
19007;DHT22;9636;47.382;8.480;2023-04-06T13:36:00;22.20;99.90
19007;DHT22;9636;47.382;8.480;2023-04-06T13:38:27;22.20;99.90
19007;DHT22;9636;47.382;8.480;2023-04-06T13:40:54;22.20;99.90
19007;DHT22;9636;47.382;8.480;2023-04-06T13:43:21;22.30;99.90
19007;DHT22;9636;47.382;8.480;2023-04-06T13:45:50;22.30;99.90
19007;DHT22;9636;47.382;8.480;2023-04-06T13:48:17;22.30;99.90
19007;DHT22;9636;47.382;8.480;2023-04-06T13:50:44;22.30;99.90
19007;DHT22;9636;47.382;8.480;2023-04-06T13:53:13;22.30;99.90
19007;DHT22;9636;47.382;8.480;2023-04-06T13:55:40;22.30;99.90
19007;DHT22;9636;47.382;8.480;2023-04-06T13:58:07;22.30;99.90
19007;DHT22;9636;47.382;8.480;2023-04-06T14:00:34;22.30;99.90
19007;DHT22;9636;47.382;8.480;2023-04-06T14:03:02;22.30;99.90
19007;DHT22;9636;47.382;8.480;2023-04-06T14:05:31;22.30;99.90
19007;DHT22;9636;47.382;8.480;2023-04-06T14:07:58;22.40;99.90
19007;DHT22;9636;47.382;8.480;2023-04-06T14:10:26;22.40;99.90
19007;DHT22;9636;47.382;8.480;2023-04-06T14:12:53;22.40;99.90
19007;DHT22;9636;47.382;8.480;2023-04-06T14:15:20;22.30;99.90
19007;DHT22;9636;47.382;8.480;2023-04-06T14:17:47;22.30;99.90
19007;DHT22;9636;47.382;8.480;2023-04-06T14:20:14;22.60;99.90
19007;DHT22;9636;47.382;8.480;2023-04-06T14:22:41;22.90;99.90
19007;DHT22;9636;47.382;8.480;2023-04-06T14:25:09;23.30;99.90
19007;DHT22;9636;47.382;8.480;2023-04-06T14:27:38;23.70;99.90
19007;DHT22;9636;47.382;8.480;2023-04-06T14:30:06;24.20;99.90
19007;DHT22;9636;47.382;8.480;2023-04-06T14:32:33;24.60;99.90
19007;DHT22;9636;47.382;8.480;2023-04-06T14:35:01;24.80;99.90
19007;DHT22;9636;47.382;8.480;2023-04-06T14:37:28;24.70;99.90
19007;DHT22;9636;47.382;8.480;2023-04-06T14:39:55;24.60;99.90
19007;DHT22;9636;47.382;8.480;2023-04-06T14:42:22;24.50;99.90
19007;DHT22;9636;47.382;8.480;2023-04-06T14:44:50;24.50;99.70
19007;DHT22;9636;47.382;8.480;2023-04-06T14:47:19;24.40;99.90
19007;DHT22;9636;47.382;8.480;2023-04-06T14:49:47;24.20;99.30
19007;DHT22;9636;47.382;8.480;2023-04-06T14:52:14;24.00;99.90
19007;DHT22;9636;47.382;8.480;2023-04-06T14:54:41;23.90;99.90
19007;DHT22;9636;47.382;8.480;2023-04-06T14:57:07;23.80;99.90
19007;DHT22;9636;47.382;8.480;2023-04-06T14:59:34;23.70;99.90
19007;DHT22;9636;47.382;8.480;2023-04-06T15:02:03;23.60;99.90
19007;DHT22;9636;47.382;8.480;2023-04-06T15:04:30;23.50;99.90
19007;DHT22;9636;47.382;8.480;2023-04-06T15:06:56;23.50;99.90
19007;DHT22;9636;47.382;8.480;2023-04-06T15:09:23;23.40;99.90
19007;DHT22;9636;47.382;8.480;2023-04-06T15:11:50;23.40;99.90
19007;DHT22;9636;47.382;8.480;2023-04-06T15:14:17;23.40;99.90
19007;DHT22;9636;47.382;8.480;2023-04-06T15:16:44;23.30;99.90
19007;DHT22;9636;47.382;8.480;2023-04-06T15:19:12;23.30;99.90
19007;DHT22;9636;47.382;8.480;2023-04-06T15:21:39;23.20;99.90
19007;DHT22;9636;47.382;8.480;2023-04-06T15:24:06;23.10;99.90
19007;DHT22;9636;47.382;8.480;2023-04-06T15:26:35;23.10;99.90
19007;DHT22;9636;47.382;8.480;2023-04-06T15:29:02;23.10;99.40
19007;DHT22;9636;47.382;8.480;2023-04-06T15:31:29;23.00;99.80
19007;DHT22;9636;47.382;8.480;2023-04-06T15:33:56;23.00;99.90
19007;DHT22;9636;47.382;8.480;2023-04-06T15:36:25;22.90;99.90
19007;DHT22;9636;47.382;8.480;2023-04-06T15:38:54;22.90;99.90
19007;DHT22;9636;47.382;8.480;2023-04-06T15:41:21;22.90;99.90
19007;DHT22;9636;47.382;8.480;2023-04-06T15:43:48;22.80;99.90
19007;DHT22;9636;47.382;8.480;2023-04-06T15:46:15;22.80;99.90
19007;DHT22;9636;47.382;8.480;2023-04-06T15:48:42;22.80;99.90
19007;DHT22;9636;47.382;8.480;2023-04-06T15:51:09;22.70;99.90